Terminal Aerodrome Forecast
Issued by NWS

Home | Current Version | Previous Version | Graphics & Text | Print | Product List | Glossary On
Versions: 1 2 3 4 5 6 7 8 9 10 11 12 13 14 15 16 17 18 19 20 21 22 23 24 25
377
FTUS43 KMPX 081036 AAA
TAFAXN
TAF AMD
KAXN 081036Z 0811/0906 33023G31KT 3SM -SN BLSN SCT015 OVC035
      TEMPO 0811/0814 2SM -SN BLSN OVC030
     FM081600 34023G32KT P6SM BKN020
     FM082200 33018G28KT P6SM BKN025=

USA.gov is the U.S. government's official web portal to all federal, state and local government web resources and services.